Time;durP1;ratioP1;P1;durP2;ratioP2;P2;SDS_P1;SDS_P2;PMS_P1;PMS_P2;Temp;Humidity;BMP_temperature;BMP_pressure;BME280_temperature;BME280_humidity;BME280_pressure;Samples;Min_cycle;Max_cycle;Signal;HPM_P1;HPM_P2
2022/06/12 00:00:55;;;;;;;12.98;7.60;;;;;;;18.35;67.75;99880.06;6101385;23;20021;-80
2022/06/12 00:03:25;;;;;;;10.40;7.15;;;;;;;18.39;67.69;99875.50;6129582;23;20022;-80
2022/06/12 00:05:54;;;;;;;7.60;6.80;;;;;;;18.39;67.66;99872.03;6100572;23;20108;-82
2022/06/12 00:08:22;;;;;;;9.27;6.80;;;;;;;18.41;67.71;99873.69;6127278;23;20041;-80
2022/06/12 00:10:50;;;;;;;10.38;6.45;;;;;;;18.42;67.76;99870.13;6134273;23;20089;-81
2022/06/12 00:13:25;;;;;;;8.23;7.35;;;;;;;18.42;67.85;99864.00;6106202;23;20101;-81
2022/06/12 00:15:52;;;;;;;11.75;7.50;;;;;;;18.41;67.94;99862.28;6134254;23;20033;-81
2022/06/12 00:18:19;;;;;;;9.68;6.90;;;;;;;18.30;67.61;99842.50;6083508;23;20041;-80
2022/06/12 00:20:45;;;;;;;12.38;7.65;;;;;;;18.29;67.43;99843.41;6086860;23;20018;-79
2022/06/12 00:23:15;;;;;;;11.18;7.22;;;;;;;18.40;67.06;99856.16;6058515;23;20024;-81
2022/06/12 00:25:42;;;;;;;9.07;6.75;;;;;;;18.31;67.17;99846.00;6128445;23;20077;-80
2022/06/12 00:28:08;;;;;;;9.55;7.10;;;;;;;18.18;67.21;99841.22;6127596;23;20415;-80
2022/06/12 00:30:35;;;;;;;9.52;7.30;;;;;;;18.31;67.25;99859.19;6126695;23;20041;-82
2022/06/12 00:33:02;;;;;;;8.20;6.60;;;;;;;18.27;67.31;99855.78;6052915;23;20098;-81
2022/06/12 00:35:34;;;;;;;10.13;6.53;;;;;;;18.39;67.29;99870.25;6078290;23;20415;-80
2022/06/12 00:38:02;;;;;;;9.50;6.60;;;;;;;18.37;67.03;99861.53;6112408;23;20017;-79
2022/06/12 00:40:29;;;;;;;12.05;7.50;;;;;;;18.41;67.03;99868.41;6120723;23;20025;-79
2022/06/12 00:43:00;;;;;;;10.60;6.75;;;;;;;18.40;67.23;99861.41;6120709;23;20018;-80
2022/06/12 00:45:45;;;;;;;13.70;7.30;;;;;;;18.41;67.13;99867.56;6102219;23;20041;-80
2022/06/12 00:48:24;;;;;;;9.70;7.25;;;;;;;18.36;67.18;99870.34;6136963;23;20022;-81
2022/06/12 00:51:16;;;;;;;12.35;6.43;;;;;;;18.26;67.49;99861.13;6101754;23;20018;-79
2022/06/12 00:53:50;;;;;;;8.05;6.63;;;;;;;18.32;67.25;99871.41;6083458;23;20041;-78
2022/06/12 00:56:21;;;;;;;9.07;6.63;;;;;;;18.40;67.30;99886.91;6102764;23;20029;-78
2022/06/12 00:58:59;;;;;;;8.18;6.68;;;;;;;18.28;67.16;99862.78;6077469;23;20069;-81
2022/06/12 01:01:33;;;;;;;9.95;6.38;;;;;;;18.34;67.30;99875.72;6101638;23;20090;-79
2022/06/12 01:06:48;;;;;;;10.57;6.65;;;;;;;18.35;67.35;99868.66;6126751;23;20017;-81
2022/06/12 01:09:22;;;;;;;10.68;7.05;;;;;;;18.41;67.58;99878.09;6124756;23;20138;-80
2022/06/12 01:11:51;;;;;;;9.10;6.80;;;;;;;18.42;67.01;99885.09;6101578;23;20029;-80
2022/06/12 01:14:21;;;;;;;7.93;5.88;;;;;;;18.38;67.06;99884.34;6100453;23;20018;-81
2022/06/12 01:16:48;;;;;;;9.40;5.78;;;;;;;18.32;66.99;99880.16;6100466;23;20817;-81
2022/06/12 01:19:41;;;;;;;10.93;5.93;;;;;;;18.32;66.60;99880.16;6127073;23;20177;-80
2022/06/12 01:22:38;;;;;;;12.00;6.40;;;;;;;18.34;66.68;99891.50;6077426;23;20519;-80
2022/06/12 01:25:26;;;;;;;11.57;6.30;;;;;;;18.32;66.70;99895.09;6128361;23;20356;-79
2022/06/12 01:28:32;;;;;;;11.98;6.30;;;;;;;18.12;66.94;99870.41;6114591;23;20071;-80
2022/06/12 01:31:27;;;;;;;;;;;;;;;;;;;;;
2022/06/12 01:34:34;;;;;;;7.93;6.32;;;;;;;18.26;67.39;99892.72;6112700;23;20105;-81
2022/06/12 01:37:09;;;;;;;8.52;6.65;;;;;;;18.25;67.65;99891.84;6122410;23;20046;-80
2022/06/12 01:39:49;;;;;;;8.77;6.22;;;;;;;18.24;67.78;99894.56;6151024;23;20008;-81
2022/06/12 01:42:15;;;;;;;8.20;6.40;;;;;;;18.26;68.06;99898.84;6126469;23;20006;-81
2022/06/12 01:44:51;;;;;;;9.95;6.38;;;;;;;18.19;68.14;99878.97;6153031;23;20020;-82
2022/06/12 01:47:30;;;;;;;9.27;6.35;;;;;;;18.25;67.74;99893.66;6103505;23;20002;-79
2022/06/12 01:50:18;;;;;;;9.23;6.22;;;;;;;18.11;67.68;99870.47;6102776;23;20010;-81
2022/06/12 01:53:02;;;;;;;7.63;6.82;;;;;;;18.18;68.06;99887.78;6112755;23;20018;-82
2022/06/12 01:55:51;;;;;;;8.90;6.63;;;;;;;18.21;68.40;99892.88;6106625;23;20341;-81
2022/06/12 01:58:37;;;;;;;8.23;6.75;;;;;;;18.17;68.52;99891.31;6128467;23;20037;-80
2022/06/12 02:01:10;;;;;;;9.90;7.53;;;;;;;18.22;68.65;99891.97;6103153;23;20334;-80
2022/06/12 02:03:49;;;;;;;7.45;6.75;;;;;;;18.16;68.82;99887.81;6128025;23;20026;-80
2022/06/12 02:06:24;;;;;;;11.50;7.47;;;;;;;18.18;69.03;99888.63;6103329;23;20522;-80
2022/06/12 02:09:24;;;;;;;10.65;7.97;;;;;;;18.16;68.94;99879.91;6130419;23;20028;-77
2022/06/12 02:14:49;;;;;;;9.70;8.70;;;;;;;18.31;68.80;99888.16;6127019;23;20014;-80
2022/06/12 02:17:22;;;;;;;9.80;8.85;;;;;;;18.28;68.89;99883.84;6102055;23;20025;-80
2022/06/12 02:19:51;;;;;;;10.23;7.97;;;;;;;18.36;68.97;99891.44;6078708;23;20021;-80
2022/06/12 02:22:25;;;;;;;11.00;8.40;;;;;;;18.34;68.88;99878.34;6101235;23;20033;-79
2022/06/12 02:25:01;;;;;;;9.38;8.35;;;;;;;18.41;68.88;99883.38;6077927;23;20498;-79
2022/06/12 02:27:39;;;;;;;8.50;7.55;;;;;;;18.46;69.11;99882.25;6125724;23;20054;-80
2022/06/12 02:30:35;;;;;;;11.40;7.43;;;;;;;18.41;68.97;99870.19;6104937;23;20022;-81
2022/06/12 02:33:07;;;;;;;11.05;7.30;;;;;;;18.58;69.13;99901.09;6130837;23;20424;-80
2022/06/12 02:35:45;;;;;;;8.80;7.57;;;;;;;18.59;69.04;99895.78;6077662;23;20026;-79
2022/06/12 02:38:43;;;;;;;10.25;8.73;;;;;;;18.39;68.93;99872.88;6102490;23;20076;-80
2022/06/12 02:41:16;;;;;;;10.93;7.88;;;;;;;18.44;68.93;99897.25;6083167;23;20022;-81
2022/06/12 02:43:45;;;;;;;9.50;7.80;;;;;;;18.41;68.83;99900.03;6101402;23;20467;-80
2022/06/12 02:46:14;;;;;;;10.35;8.10;;;;;;;18.46;68.79;99899.81;6101251;23;20017;-81
2022/06/12 02:48:48;;;;;;;9.20;7.22;;;;;;;18.45;68.51;99884.94;6102126;23;20452;-82
2022/06/12 02:51:40;;;;;;;7.97;7.15;;;;;;;18.63;68.67;99893.88;6079097;23;20357;-81
2022/06/12 02:54:35;;;;;;;7.70;6.85;;;;;;;18.74;68.30;99896.06;6129351;23;20066;-80
2022/06/12 02:57:05;;;;;;;9.68;6.68;;;;;;;18.79;68.17;99894.13;6070289;23;20053;-80
2022/06/12 02:59:31;;;;;;;7.07;6.10;;;;;;;18.85;67.90;99901.78;6078073;23;20018;-80
2022/06/12 03:02:13;;;;;;;7.82;6.45;;;;;;;18.86;67.75;99897.34;6127552;23;20029;-82
2022/06/12 03:04:53;;;;;;;7.13;6.40;;;;;;;18.85;67.45;99880.69;6101179;23;20018;-80
2022/06/12 03:07:21;;;;;;;9.75;7.00;;;;;;;19.05;67.44;99900.09;6101907;23;20097;-81
2022/06/12 03:09:47;;;;;;;7.32;6.55;;;;;;;19.09;67.43;99888.47;6127224;23;20020;-80
2022/06/12 03:12:13;;;;;;;8.75;7.53;;;;;;;19.16;67.19;99884.66;6127452;23;20049;-81
2022/06/12 03:14:40;;;;;;;9.25;7.55;;;;;;;19.08;66.95;99863.06;6101453;23;20081;-79
2022/06/12 03:17:07;;;;;;;9.73;8.70;;;;;;;19.16;66.85;99875.91;6127492;23;20145;-82
2022/06/12 03:19:45;;;;;;;12.18;8.32;;;;;;;19.13;66.76;99860.22;6129080;23;20100;-81
2022/06/12 03:22:35;;;;;;;11.48;9.10;;;;;;;19.18;66.71;99864.38;6100800;23;20104;-81
2022/06/12 03:25:30;;;;;;;10.45;8.98;;;;;;;19.45;66.47;99889.59;6134956;23;20054;-78
2022/06/12 03:28:03;;;;;;;10.95;9.30;;;;;;;19.57;66.35;99897.81;6107916;23;20013;-81
2022/06/12 03:30:53;;;;;;;9.93;7.85;;;;;;;19.51;66.02;99879.63;6102305;23;20033;-80
2022/06/12 03:33:40;;;;;;;11.80;7.93;;;;;;;19.74;65.91;99904.13;6125168;23;20018;-80
2022/06/12 03:36:08;;;;;;;10.20;7.20;;;;;;;19.81;65.63;99897.63;6102668;23;20018;-79
2022/06/12 03:39:00;;;;;;;9.07;7.53;;;;;;;19.88;65.20;99903.50;6103740;23;20053;-80
2022/06/12 03:41:30;;;;;;;8.35;7.55;;;;;;;19.94;65.03;99913.81;6128906;23;20033;-81
2022/06/12 03:44:03;;;;;;;10.18;7.93;;;;;;;19.90;64.19;99906.94;6100281;23;20040;-80
2022/06/12 03:46:46;;;;;;;9.73;7.75;;;;;;;19.97;64.83;99916.31;6099820;23;20412;-81
2022/06/12 03:49:32;;;;;;;16.45;11.80;;;;;;;19.95;64.31;99904.09;6100415;23;20361;-81
2022/06/12 03:52:15;;;;;;;14.18;11.73;;;;;;;20.01;64.05;99911.72;6122047;23;20044;-81
2022/06/12 03:54:54;;;;;;;13.32;10.65;;;;;;;20.17;64.13;99911.88;6099908;23;20352;-81
2022/06/12 04:00:17;;;;;;;15.00;10.20;;;;;;;20.40;63.30;99915.22;6101068;23;20017;-81
2022/06/12 04:02:51;;;;;;;18.05;10.90;;;;;;;20.47;63.10;99906.06;6130858;23;20018;-80
2022/06/12 04:05:30;;;;;;;13.90;10.88;;;;;;;20.57;62.77;99903.81;6079480;23;20360;-80
2022/06/12 04:08:00;;;;;;;11.77;9.25;;;;;;;20.83;62.18;99901.72;6076386;23;20206;-80
2022/06/12 04:10:31;;;;;;;12.70;9.77;;;;;;;21.05;61.76;99901.47;6076992;23;20061;-79
2022/06/12 04:12:58;;;;;;;13.07;11.05;;;;;;;21.17;61.14;99902.63;6126725;23;20048;-79
2022/06/12 04:15:34;;;;;;;12.15;10.77;;;;;;;21.38;60.95;99905.97;6102269;23;20318;-82
2022/06/12 04:18:01;;;;;;;12.75;10.52;;;;;;;21.58;60.60;99915.50;6111807;23;20081;-79
2022/06/12 04:20:45;;;;;;;12.10;10.23;;;;;;;21.58;59.76;99918.16;6093511;23;20028;-80
2022/06/12 04:23:36;;;;;;;11.52;9.32;;;;;;;21.39;60.30;99918.28;6125706;23;20037;-80
2022/06/12 04:26:22;;;;;;;9.63;8.63;;;;;;;21.41;59.87;99904.94;6108958;23;20025;-81
2022/06/12 04:29:18;;;;;;;11.13;8.90;;;;;;;21.57;59.34;99905.84;6097468;23;20018;-81
2022/06/12 04:31:47;;;;;;;12.65;8.70;;;;;;;21.71;59.35;99914.88;6120290;23;20017;-80
2022/06/12 04:34:16;;;;;;;9.32;8.32;;;;;;;21.74;59.26;99915.56;6130468;23;20021;-80
2022/06/12 04:36:45;;;;;;;10.82;8.48;;;;;;;21.87;58.76;99897.22;6055565;23;20124;-79
2022/06/12 04:39:14;;;;;;;10.73;8.52;;;;;;;22.06;58.40;99897.09;6127133;23;20089;-80
2022/06/12 04:41:40;;;;;;;10.77;8.20;;;;;;;22.10;58.05;99895.09;6128281;23;20021;-81
2022/06/12 04:44:07;;;;;;;10.38;9.05;;;;;;;22.05;57.17;99889.19;6130292;23;20063;-79
2022/06/12 04:46:36;;;;;;;9.57;8.25;;;;;;;22.14;57.79;99904.59;6137423;23;20033;-80
2022/06/12 04:49:03;;;;;;;11.23;9.23;;;;;;;22.40;57.31;99907.56;6096981;23;20018;-80
2022/06/12 04:51:30;;;;;;;10.80;9.07;;;;;;;22.58;56.88;99891.59;6140813;23;20033;-81
2022/06/12 04:53:56;;;;;;;10.93;8.52;;;;;;;22.72;55.93;99894.28;6112786;23;20014;-81
2022/06/12 04:56:26;;;;;;;8.90;8.00;;;;;;;22.91;55.85;99895.88;6089083;23;20040;-79
2022/06/12 04:58:53;;;;;;;11.73;8.25;;;;;;;22.80;54.97;99886.75;6117520;23;20025;-80
2022/06/12 05:01:22;;;;;;;12.23;8.85;;;;;;;22.68;54.22;99893.63;6138854;23;20036;-81
2022/06/12 05:03:50;;;;;;;10.85;9.02;;;;;;;22.64;54.03;99883.28;6108682;23;20021;-80
2022/06/12 05:06:17;;;;;;;13.48;8.85;;;;;;;22.99;54.31;99875.06;6117610;23;20022;-80
2022/06/12 05:08:47;;;;;;;11.20;9.20;;;;;;;23.54;53.81;99901.88;6118627;23;20009;-80
2022/06/12 05:11:15;;;;;;;12.85;9.80;;;;;;;23.84;52.59;99893.78;6105939;23;20068;-79
2022/06/12 05:13:47;;;;;;;11.43;9.73;;;;;;;24.05;52.54;99890.78;6132022;23;20144;-81
2022/06/12 05:16:36;;;;;;;12.80;10.13;;;;;;;24.04;51.08;99881.09;6081707;23;20017;-80
2022/06/12 05:19:15;;;;;;;11.80;9.95;;;;;;;23.95;51.07;99906.41;6085258;23;20022;-83
2022/06/12 05:21:42;;;;;;;12.93;9.52;;;;;;;23.77;51.53;99909.25;6108384;23;20088;-81
2022/06/12 05:24:12;;;;;;;12.02;8.68;;;;;;;24.21;51.75;99911.88;6108527;23;20338;-81
2022/06/12 05:26:39;;;;;;;9.93;8.88;;;;;;;24.61;49.58;99903.97;6083671;23;20022;-79
2022/06/12 05:29:17;;;;;;;10.82;8.57;;;;;;;25.05;48.87;99901.13;6133559;23;20029;-82
2022/06/12 05:31:46;;;;;;;10.07;9.05;;;;;;;25.14;47.56;99905.81;6133546;23;20017;-81
2022/06/12 05:34:14;;;;;;;11.75;9.25;;;;;;;25.49;47.10;99899.88;6109314;23;20081;-80
2022/06/12 05:36:41;;;;;;;9.93;8.93;;;;;;;25.67;47.32;99908.41;6106942;23;20018;-81
2022/06/12 05:39:07;;;;;;;9.80;8.82;;;;;;;25.92;45.99;99881.84;6130463;23;20018;-81
2022/06/12 05:41:44;;;;;;;9.13;8.07;;;;;;;26.38;45.81;99897.16;6105984;23;20018;-81
2022/06/12 05:44:23;;;;;;;9.02;8.18;;;;;;;26.51;44.87;99907.78;6103940;23;20368;-81
2022/06/12 05:46:50;;;;;;;9.77;7.65;;;;;;;26.69;44.49;99897.56;6077305;23;20464;-81
2022/06/12 05:49:16;;;;;;;8.35;7.55;;;;;;;26.54;43.39;99893.38;6076964;23;20021;-79
2022/06/12 05:51:42;;;;;;;8.48;7.10;;;;;;;26.51;42.77;99898.94;6101235;23;20030;-81
2022/06/12 05:54:12;;;;;;;8.02;6.20;;;;;;;26.19;42.72;99886.13;6101485;23;20523;-82
2022/06/12 05:56:39;;;;;;;6.30;5.50;;;;;;;26.15;42.22;99907.69;6102508;23;20022;-81
2022/06/12 05:59:12;;;;;;;6.35;5.53;;;;;;;26.44;42.97;99912.72;6086418;23;20025;-83
2022/06/12 06:01:53;;;;;;;6.53;5.75;;;;;;;26.59;41.87;99900.06;6105137;23;20021;-80
2022/06/12 06:04:20;;;;;;;6.25;5.65;;;;;;;27.29;40.53;99878.78;6101985;23;20092;-82
2022/06/12 06:06:56;;;;;;;6.68;6.03;;;;;;;27.33;40.58;99885.59;6055917;23;20018;-80
2022/06/12 06:09:23;;;;;;;8.00;6.30;;;;;;;27.31;40.34;99895.56;6125820;23;20018;-81
2022/06/12 06:11:50;;;;;;;7.20;6.18;;;;;;;27.15;40.44;99881.69;6125906;23;20025;-82
2022/06/12 06:14:16;;;;;;;7.90;5.70;;;;;;;27.84;38.68;99893.28;6127609;23;20014;-83
2022/06/12 06:16:45;;;;;;;7.05;6.07;;;;;;;27.47;39.63;99889.06;6078767;23;20014;-82
2022/06/12 06:19:14;;;;;;;6.93;5.47;;;;;;;27.40;40.22;99882.47;6077086;23;20464;-82
2022/06/12 06:21:42;;;;;;;6.72;5.10;;;;;;;27.77;39.57;99888.44;6126937;23;20075;-80
2022/06/12 06:24:09;;;;;;;8.38;5.68;;;;;;;28.27;39.21;99881.81;6077619;23;20017;-82
2022/06/12 06:26:36;;;;;;;6.47;5.00;;;;;;;29.26;38.41;99894.13;6102059;23;20040;-82
2022/06/12 06:29:03;;;;;;;6.32;5.50;;;;;;;29.58;37.00;99880.63;6110337;23;20026;-80
2022/06/12 06:31:29;;;;;;;6.80;4.80;;;;;;;30.54;36.38;99890.06;6108327;23;20021;-80
2022/06/12 06:34:14;;;;;;;5.93;4.97;;;;;;;31.34;33.96;99827.19;6102111;23;20017;-82
2022/06/12 06:37:02;;;;;;;4.82;4.38;;;;;;;33.69;32.43;99866.63;6101800;23;20017;-79
2022/06/12 06:39:46;;;;;;;6.32;4.35;;;;;;;33.43;30.66;99795.59;6129165;23;20072;-80
2022/06/12 06:42:34;;;;;;;4.90;3.90;;;;;;;34.39;29.33;99841.16;6100982;23;20022;-81
2022/06/12 06:47:46;;;;;;;5.25;4.20;;;;;;;35.07;28.21;99866.16;6127314;23;20022;-79
2022/06/12 06:50:18;;;;;;;4.78;4.38;;;;;;;35.18;28.26;99845.19;6099626;23;20099;-79
2022/06/12 06:52:59;;;;;;;4.57;4.18;;;;;;;34.97;27.24;99841.19;6100110;23;20018;-80
2022/06/12 06:56:01;;;;;;;;;;;;;;;;;;;;;
2022/06/12 06:58:47;;;;;;;4.97;4.47;;;;;;;37.43;23.89;99772.94;6075561;23;20077;-80
2022/06/12 07:01:15;;;;;;;4.30;3.50;;;;;;;38.12;23.67;99825.91;6101108;23;20092;-83
2022/06/12 07:03:45;;;;;;;5.88;3.60;;;;;;;39.14;23.07;99842.84;6052550;23;20045;-82
2022/06/12 07:06:13;;;;;;;6.63;4.28;;;;;;;39.41;22.15;99832.13;6125207;23;20072;-81
2022/06/12 07:08:39;;;;;;;6.07;4.43;;;;;;;40.18;21.49;99840.13;6100114;23;20456;-81
2022/06/12 07:11:47;;;;;;;;;;;;;;;;;;;;;
2022/06/12 07:14:44;;;;;;;4.97;4.47;;;;;;;41.50;20.35;99794.03;6106921;23;20372;-83
2022/06/12 07:17:11;;;;;;;5.05;4.00;;;;;;;41.74;20.09;99835.31;6244130;23;20082;-81
2022/06/12 07:19:38;;;;;;;6.70;5.07;;;;;;;41.33;19.16;99824.56;6245420;23;20649;-81
2022/06/12 07:22:12;;;;;;;5.43;4.93;;;;;;;40.69;19.93;99804.34;6244157;23;20023;-80
2022/06/12 07:24:59;;;;;;;4.63;4.22;;;;;;;41.18;19.74;99810.31;6223093;23;20012;-84
2022/06/12 07:27:25;;;;;;;5.15;4.53;;;;;;;41.78;18.75;99804.59;6219191;23;20012;-83
2022/06/12 07:29:51;;;;;;;5.63;4.20;;;;;;;41.38;18.72;99832.09;6218459;23;20022;-82
2022/06/12 07:32:19;;;;;;;5.05;4.38;;;;;;;41.03;19.70;99822.31;6217841;23;20022;-82
2022/06/12 07:34:46;;;;;;;5.20;4.70;;;;;;;41.40;19.21;99819.88;6217605;23;20008;-82
2022/06/12 07:37:13;;;;;;;15.55;14.00;;;;;;;41.60;19.01;99832.63;6193339;23;20046;-82
2022/06/12 07:39:44;;;;;;;5.65;4.10;;;;;;;42.34;18.25;99820.41;6244637;23;20015;-82
2022/06/12 07:42:16;;;;;;;4.70;4.28;;;;;;;42.50;18.33;99814.41;6220040;23;20020;-82
2022/06/12 07:44:43;;;;;;;7.43;6.18;;;;;;;43.52;17.44;99815.03;6195184;23;20012;-81
2022/06/12 07:47:10;;;;;;;6.25;4.32;;;;;;;44.69;16.69;99798.28;6197687;23;20037;-82
2022/06/12 07:49:37;;;;;;;5.45;3.90;;;;;;;45.53;15.73;99840.13;6225318;23;20068;-82
2022/06/12 07:52:08;;;;;;;4.45;3.67;;;;;;;45.43;15.59;99805.09;6255463;23;20111;-82
2022/06/12 07:54:36;;;;;;;4.10;3.80;;;;;;;45.14;15.37;99788.56;6238370;23;20059;-82
2022/06/12 07:57:02;;;;;;;5.20;4.70;;;;;;;45.30;15.45;99819.94;6240907;23;20027;-81
2022/06/12 07:59:29;;;;;;;4.60;4.30;;;;;;;46.12;14.91;99784.94;6256247;23;20058;-81
2022/06/12 08:01:55;;;;;;;5.40;4.95;;;;;;;47.94;14.01;99799.09;6223387;23;20099;-84
2022/06/12 08:04:23;;;;;;;4.65;4.22;;;;;;;49.24;13.18;99811.81;6221667;23;20016;-82
2022/06/12 08:06:50;;;;;;;4.80;4.25;;;;;;;48.84;13.15;99778.22;6196102;23;20023;-85
2022/06/12 08:09:17;;;;;;;6.03;4.40;;;;;;;49.08;12.93;99764.00;6201062;23;20088;-81
2022/06/12 08:11:52;;;;;;;6.10;3.97;;;;;;;49.40;12.36;99749.16;6227236;23;20033;-82
2022/06/12 08:14:23;;;;;;;6.80;4.85;;;;;;;48.23;13.01;99807.06;6248524;23;20020;-81
2022/06/12 08:17:07;;;;;;;5.72;5.10;;;;;;;48.07;13.00;99786.81;6031388;23;3751913;-82
2022/06/12 08:22:33;;;;;;;5.93;4.55;;;;;;;50.41;12.01;99805.88;6197606;23;20016;-80
2022/06/12 08:25:54;;;;;;;;;;;;;;;;;;;;;
2022/06/12 08:28:53;;;;;;;6.93;3.72;;;;;;;49.71;11.97;99755.56;6188848;23;20011;-79
2022/06/12 08:31:49;;;;;;;4.20;3.90;;;;;;;50.80;11.23;99785.88;6214273;23;20021;-80
2022/06/12 08:34:29;;;;;;;5.85;4.28;;;;;;;51.41;10.33;99789.47;6238579;23;20008;-82
2022/06/12 08:37:01;;;;;;;4.43;4.13;;;;;;;50.12;11.24;99776.84;6148921;23;20033;-82
2022/06/12 08:39:35;;;;;;;3.78;3.55;;;;;;;50.58;11.62;99756.63;6100276;23;20037;-82
2022/06/12 08:42:24;;;;;;;5.80;3.70;;;;;;;50.85;10.98;99785.88;6120950;23;20083;-82
2022/06/12 08:45:25;;;;;;;3.60;3.30;;;;;;;49.81;10.29;99776.03;6074972;23;19998;-85
2022/06/12 08:48:01;;;;;;;5.40;3.38;;;;;;;47.03;12.08;99727.94;6089332;23;20025;-83
2022/06/12 08:50:48;;;;;;;10.20;9.10;;;;;;;45.18;13.19;99772.44;6108532;23;20021;-78
2022/06/12 08:53:36;;;;;;;6.85;5.25;;;;;;;43.67;14.06;99770.00;6104560;23;20010;-80
2022/06/12 08:56:38;;;;;;;9.07;8.35;;;;;;;42.24;14.91;99771.75;6127620;23;20052;-83
2022/06/12 08:59:11;;;;;;;6.53;3.55;;;;;;;40.63;16.05;99771.38;6072412;23;20025;-80
2022/06/12 09:01:42;;;;;;;6.82;6.22;;;;;;;39.58;17.25;99764.59;6075458;23;20105;-80
2022/06/12 09:04:15;;;;;;;5.75;3.05;;;;;;;38.83;17.92;99765.28;6100064;23;20021;-80
2022/06/12 09:07:10;;;;;;;3.55;3.10;;;;;;;37.93;18.46;99768.53;6105479;23;20064;-81
2022/06/12 09:10:06;;;;;;;3.20;2.90;;;;;;;36.67;19.65;99761.22;6188739;23;20358;-82
2022/06/12 09:12:51;;;;;;;3.58;3.20;;;;;;;35.88;20.43;99759.66;6188568;23;20024;-81
2022/06/12 09:15:51;;;;;;;3.63;2.97;;;;;;;35.26;20.96;99766.75;6167078;23;20048;-81
2022/06/12 09:18:17;;;;;;;;;;;;;;;34.72;21.22;99764.72;6189994;23;20027;-81
2022/06/12 09:21:14;;;;;;;6.00;4.53;;;;;;;34.25;21.52;99769.78;6190667;23;19915;-81
2022/06/12 09:23:49;;;;;;;8.45;7.55;;;;;;;33.73;22.42;99773.59;6189177;23;20127;-81
2022/06/12 09:26:22;;;;;;;9.40;4.03;;;;;;;33.22;22.80;99774.41;6190013;23;20072;-81
2022/06/12 09:29:07;;;;;;;3.65;3.35;;;;;;;32.70;23.97;99775.25;6189354;23;20016;-81
2022/06/12 09:31:39;;;;;;;13.68;10.70;;;;;;;32.39;23.70;99771.19;6189125;23;20589;-82
2022/06/12 09:34:25;;;;;;;8.95;8.02;;;;;;;32.15;24.41;99778.00;6189907;23;20086;-81
2022/06/12 09:40:33;;;;;;;5.80;3.33;;;;;;;31.56;24.97;99739.91;6180017;23;20157;-81
2022/06/12 09:42:59;;;;;;;13.60;11.73;;;;;;;31.52;25.64;99768.13;6220087;23;20051;-81
2022/06/12 09:45:44;;;;;;;15.38;10.93;;;;;;;31.50;25.87;99767.41;6221770;23;20138;-83
2022/06/12 09:48:10;;;;;;;5.88;3.95;;;;;;;31.35;26.10;99765.22;6247931;23;20141;-82
2022/06/12 09:51:11;;;;;;;5.00;4.38;;;;;;;31.12;26.71;99759.38;6225092;23;20012;-83
2022/06/12 09:53:54;;;;;;;4.25;3.80;;;;;;;30.85;27.17;99758.34;6225480;23;20454;-81
2022/06/12 09:56:34;;;;;;;6.70;4.75;;;;;;;30.60;28.03;99752.59;6224800;23;20043;-82
2022/06/12 09:59:25;;;;;;;6.25;4.70;;;;;;;30.44;29.17;99765.75;6226279;23;20065;-81
2022/06/12 10:01:57;;;;;;;4.57;4.15;;;;;;;30.15;29.77;99761.25;6222166;23;20020;-80
2022/06/12 10:04:38;;;;;;;4.63;4.22;;;;;;;30.65;29.99;99761.06;6208875;23;20038;-81
2022/06/12 10:07:24;;;;;;;5.93;4.15;;;;;;;31.05;29.04;99752.88;6255592;23;20084;-79
2022/06/12 10:09:59;;;;;;;5.53;4.25;;;;;;;31.02;29.13;99732.56;6176800;23;20066;-80
2022/06/12 10:12:39;;;;;;;4.63;3.83;;;;;;;31.27;29.26;99723.97;6210709;23;20024;-81
2022/06/12 10:15:15;;;;;;;5.43;4.07;;;;;;;32.43;28.96;99742.13;6204278;23;20024;-84
2022/06/12 10:18:20;;;;;;;4.75;4.05;;;;;;;34.44;25.54;99725.44;6234541;23;20034;-80
2022/06/12 10:20:55;;;;;;;4.20;3.90;;;;;;;34.50;25.94;99719.34;6179691;23;20047;-81
2022/06/12 10:23:22;;;;;;;4.82;4.28;;;;;;;35.13;24.75;99722.22;6212416;23;20023;-81
2022/06/12 10:25:53;;;;;;;4.18;3.78;;;;;;;34.87;24.18;99698.13;6237870;23;20012;-80
2022/06/12 10:28:40;;;;;;;5.13;3.80;;;;;;;34.21;24.54;99719.84;6263686;23;20046;-80
2022/06/12 10:31:10;;;;;;;5.28;4.30;;;;;;;33.73;25.15;99725.91;6237078;23;20016;-81
2022/06/12 10:33:42;;;;;;;6.40;3.50;;;;;;;33.18;26.18;99724.53;6239785;23;20028;-79
2022/06/12 10:36:40;;;;;;;4.80;4.40;;;;;;;32.58;26.58;99729.78;6242722;23;20047;-80
2022/06/12 10:39:10;;;;;;;4.32;3.95;;;;;;;31.88;26.95;99732.41;6238082;23;20012;-81
2022/06/12 10:41:57;;;;;;;6.85;5.22;;;;;;;31.18;27.77;99726.56;6241555;23;20020;-79
2022/06/12 10:44:44;;;;;;;4.80;4.30;;;;;;;30.84;28.33;99727.09;6243039;23;20072;-81
2022/06/12 10:47:28;;;;;;;4.45;4.05;;;;;;;30.62;28.88;99725.63;6229736;23;20043;-79
2022/06/12 10:50:06;;;;;;;4.93;4.07;;;;;;;30.27;29.09;99729.75;6255038;23;20023;-80
2022/06/12 10:52:34;;;;;;;5.10;3.65;;;;;;;30.44;28.95;99725.50;6233821;23;20019;-84
2022/06/12 10:55:00;;;;;;;4.20;3.63;;;;;;;30.03;28.91;99702.41;6211993;23;20023;-80
2022/06/12 10:57:51;;;;;;;4.88;3.55;;;;;;;30.13;29.55;99720.28;6254605;23;20023;-81
2022/06/12 11:00:26;;;;;;;4.18;3.80;;;;;;;30.34;29.48;99718.28;6253649;23;20092;-80
2022/06/12 11:03:06;;;;;;;6.15;4.00;;;;;;;30.59;29.35;99716.00;6232397;22;20011;-80
2022/06/12 11:06:00;;;;;;;5.53;4.05;;;;;;;30.76;29.42;99708.22;6228235;23;20016;-81
2022/06/12 11:08:29;;;;;;;4.20;3.80;;;;;;;30.51;29.04;99713.19;6227461;23;20016;-81
2022/06/12 11:11:17;;;;;;;4.40;3.90;;;;;;;30.38;29.12;99708.13;6226086;23;20066;-82
2022/06/12 11:14:06;;;;;;;5.72;3.70;;;;;;;30.45;29.39;99708.41;6251851;23;20016;-81
2022/06/12 11:16:58;;;;;;;3.92;3.45;;;;;;;30.71;28.79;99691.69;6223598;23;20072;-81
2022/06/12 11:19:51;;;;;;;4.07;3.78;;;;;;;30.68;28.93;99695.50;6250065;23;20046;-80
2022/06/12 11:22:23;;;;;;;5.32;3.67;;;;;;;30.25;29.81;99692.34;6227355;23;20016;-80
2022/06/12 11:24:52;;;;;;;5.03;3.92;;;;;;;30.09;29.57;99690.25;6203410;23;20075;-81
2022/06/12 11:27:46;;;;;;;5.57;4.03;;;;;;;29.86;30.54;99698.53;6226378;23;20064;-81
2022/06/12 11:30:54;;;;;;;3.83;3.53;;;;;;;29.73;31.02;99696.13;6241382;23;20027;-81
2022/06/12 11:33:51;;;;;;;5.13;3.75;;;;;;;29.42;31.09;99692.72;6220774;22;20008;-82
2022/06/12 11:36:42;;;;;;;4.50;4.10;;;;;;;29.22;31.53;99689.13;6246480;22;20016;-81
2022/06/12 11:39:21;;;;;;;4.47;3.95;;;;;;;28.77;31.29;99685.88;6239863;23;20020;-81
2022/06/12 11:42:27;;;;;;;4.70;4.30;;;;;;;28.55;32.21;99685.03;6229792;23;20020;-79
2022/06/12 11:45:14;;;;;;;5.63;3.90;;;;;;;28.59;31.93;99672.25;6225022;23;20095;-82
2022/06/12 11:48:11;;;;;;;4.13;3.72;;;;;;;28.46;32.11;99674.28;6223129;23;20098;-82
2022/06/12 11:51:04;;;;;;;4.57;4.18;;;;;;;28.50;31.94;99662.31;6223077;23;20023;-81
2022/06/12 11:54:05;;;;;;;4.20;3.80;;;;;;;28.61;31.78;99664.06;6249147;23;20023;-81
2022/06/12 11:57:12;;;;;;;4.90;3.80;;;;;;;28.66;31.89;99660.03;6210337;23;20107;-81
2022/06/12 12:00:06;;;;;;;4.13;3.83;;;;;;;28.65;32.35;99658.34;6131053;23;20053;-78
2022/06/12 12:02:56;;;;;;;5.40;3.90;;;;;;;28.50;32.35;99652.47;6195666;23;20020;-81
2022/06/12 12:05:24;;;;;;;4.93;4.03;;;;;;;28.52;32.37;99650.53;6221246;23;20121;-83
2022/06/12 12:07:58;;;;;;;4.43;3.90;;;;;;;28.53;32.63;99654.91;6246985;23;20028;-81
2022/06/12 12:10:27;;;;;;;5.45;4.40;;;;;;;28.30;32.42;99659.53;6196144;23;20097;-80
2022/06/12 12:13:01;;;;;;;4.88;4.38;;;;;;;28.19;32.73;99651.59;6196757;23;20017;-80
2022/06/12 12:15:46;;;;;;;5.47;4.57;;;;;;;28.32;32.83;99640.69;6249334;23;20016;-82
2022/06/12 12:18:29;;;;;;;5.30;4.05;;;;;;;28.42;32.33;99638.91;6199379;23;20020;-82
2022/06/12 12:20:57;;;;;;;5.20;4.25;;;;;;;28.54;32.22;99637.88;6196034;23;20040;-82
2022/06/12 12:23:27;;;;;;;4.68;3.83;;;;;;;28.63;32.21;99640.69;6196203;23;20020;-81
2022/06/12 12:25:55;;;;;;;7.43;4.93;;;;;;;28.61;32.00;99637.31;6250212;23;20479;-84
2022/06/12 12:28:39;;;;;;;6.25;4.47;;;;;;;28.32;31.39;99638.03;6198861;23;20421;-80
2022/06/12 12:31:11;;;;;;;4.03;3.63;;;;;;;27.79;31.25;99626.38;6222346;23;20032;-81
2022/06/12 12:33:41;;;;;;;5.82;4.53;;;;;;;27.64;32.06;99624.03;6196165;23;20015;-81
2022/06/12 12:41:56;;;;;;;3.92;3.40;;;;;;;27.70;32.08;99611.09;6253062;23;20027;-82
2022/06/12 12:44:31;;;;;;;4.90;3.65;;;;;;;27.70;31.96;99625.34;6221249;23;20022;-83
2022/06/12 12:46:58;;;;;;;4.85;3.45;;;;;;;27.70;32.19;99627.16;6249307;23;20024;-80